createdAt,value
2019-04-16T00:01:15.359Z,11.93
2019-04-16T00:03:48.019Z,12.30
2019-04-16T00:06:27.502Z,11.50
2019-04-16T00:09:35.511Z,11.70
2019-04-16T00:12:24.378Z,11.70
2019-04-16T00:14:56.669Z,11.20
2019-04-16T00:17:44.335Z,10.83
2019-04-16T00:20:14.272Z,11.87
2019-04-16T00:22:55.362Z,11.20
2019-04-16T00:25:55.480Z,11.17
2019-04-16T00:28:30.457Z,11.43
2019-04-16T00:31:11.580Z,11.53
2019-04-16T00:33:53.844Z,11.07
2019-04-16T00:36:24.507Z,11.53
2019-04-16T00:38:55.307Z,11.60
2019-04-16T00:41:26.112Z,11.53
2019-04-16T00:43:58.841Z,12.00
2019-04-16T00:46:29.551Z,11.73
2019-04-16T00:49:00.127Z,11.20
2019-04-16T00:51:30.787Z,11.50
2019-04-16T00:54:01.366Z,12.30
2019-04-16T00:56:31.974Z,11.70
2019-04-16T00:59:02.578Z,12.03
2019-04-16T01:01:34.303Z,11.57
2019-04-16T01:04:05.557Z,11.63
2019-04-16T01:06:37.922Z,11.37
2019-04-16T01:09:09.094Z,12.00
2019-04-16T01:11:41.501Z,11.30
2019-04-16T01:14:12.168Z,11.53
2019-04-16T01:16:44.047Z,11.57
2019-04-16T01:19:15.563Z,12.60
2019-04-16T01:21:46.704Z,11.30
2019-04-16T01:24:19.926Z,11.17
2019-04-16T01:26:49.766Z,11.70
2019-04-16T01:29:20.452Z,11.67
2019-04-16T01:32:11.245Z,11.90
2019-04-16T01:34:47.114Z,11.60
2019-04-16T01:37:19.936Z,12.00
2019-04-16T01:39:52.214Z,11.73
2019-04-16T01:42:32.533Z,12.23
2019-04-16T01:45:03.164Z,12.10
2019-04-16T01:47:37.096Z,12.10
2019-04-16T01:50:12.933Z,12.50
2019-04-16T01:52:40.854Z,12.27
2019-04-16T01:55:17.364Z,12.03
2019-04-16T01:57:47.990Z,12.47
2019-04-16T02:00:24.711Z,11.73
2019-04-16T02:03:02.148Z,12.27
2019-04-16T02:05:34.751Z,11.27
2019-04-16T02:08:05.564Z,11.63
2019-04-16T02:10:38.477Z,11.90
2019-04-16T02:13:08.826Z,13.23
2019-04-16T02:15:39.456Z,11.77
2019-04-16T02:18:16.186Z,12.43
2019-04-16T02:20:46.785Z,12.00
2019-04-16T02:23:17.539Z,12.77
2019-04-16T02:25:51.331Z,12.47
2019-04-16T02:28:22.045Z,12.30
2019-04-16T02:30:54.725Z,12.80
2019-04-16T02:33:25.312Z,12.87
2019-04-16T02:35:56.044Z,12.47
2019-04-16T02:38:26.718Z,11.80
2019-04-16T02:40:57.422Z,12.07
2019-04-16T02:43:28.074Z,12.83
2019-04-16T02:45:58.942Z,12.57
2019-04-16T02:48:35.457Z,12.47
2019-04-16T02:51:08.619Z,11.53
2019-04-16T02:53:58.557Z,12.20
2019-04-16T02:56:37.155Z,12.37
2019-04-16T02:59:25.559Z,12.63
2019-04-16T03:02:27.816Z,12.83
2019-04-16T03:05:06.103Z,12.57
2019-04-16T03:07:37.999Z,12.87
2019-04-16T03:10:12.063Z,12.10
2019-04-16T03:12:41.195Z,13.33
2019-04-16T03:15:11.897Z,12.73
2019-04-16T03:17:44.172Z,13.20
2019-04-16T03:20:20.735Z,11.93
2019-04-16T03:22:51.963Z,12.20
2019-04-16T03:25:22.569Z,12.27
2019-04-16T03:27:55.114Z,12.07
2019-04-16T03:30:25.651Z,13.70
2019-04-16T03:32:56.356Z,12.43
2019-04-16T03:35:26.983Z,12.67
2019-04-16T03:37:57.637Z,12.70
2019-04-16T03:40:29.236Z,12.80
2019-04-16T03:43:03.955Z,12.20
2019-04-16T03:45:45.349Z,12.50
2019-04-16T03:48:20.657Z,12.90
2019-04-16T03:50:51.352Z,12.70
2019-04-16T03:53:22.069Z,12.33
2019-04-16T03:55:54.563Z,12.43
2019-04-16T03:58:30.415Z,12.90
2019-04-16T04:01:02.146Z,13.50
2019-04-16T04:03:34.934Z,12.97
2019-04-16T04:06:11.123Z,12.30
2019-04-16T04:08:41.835Z,12.50
2019-04-16T04:11:12.653Z,12.93
2019-04-16T04:13:43.307Z,13.67
2019-04-16T04:16:13.899Z,13.23
2019-04-16T04:18:45.509Z,12.77
2019-04-16T04:21:25.421Z,13.00
2019-04-16T04:24:08.583Z,12.90
2019-04-16T04:26:42.489Z,12.97
2019-04-16T04:29:13.209Z,12.57
2019-04-16T04:31:43.847Z,12.10
2019-04-16T04:34:16.971Z,12.83
2019-04-16T04:36:49.094Z,12.50
2019-04-16T04:39:21.820Z,12.97
2019-04-16T04:41:56.384Z,12.80
2019-04-16T04:44:26.824Z,13.03
2019-04-16T04:46:57.462Z,13.10
2019-04-16T04:49:30.356Z,13.67
2019-04-16T04:52:00.834Z,13.00
2019-04-16T04:54:37.393Z,13.47
2019-04-16T04:57:08.066Z,12.30
2019-04-16T04:59:38.735Z,12.93
2019-04-16T05:02:10.586Z,13.40
2019-04-16T05:05:01.651Z,13.37
2019-04-16T05:07:34.541Z,13.47
2019-04-16T05:10:10.034Z,13.30
2019-04-16T05:12:54.173Z,13.13
2019-04-16T05:15:30.175Z,13.10
2019-04-16T05:18:00.938Z,12.47
2019-04-16T05:20:41.430Z,13.50
2019-04-16T05:23:12.547Z,12.93
2019-04-16T05:25:48.109Z,13.10
2019-04-16T05:28:32.760Z,13.17
2019-04-16T05:31:12.976Z,13.20
2019-04-16T05:33:58.705Z,12.93
2019-04-16T05:36:27.544Z,13.93
2019-04-16T05:38:58.733Z,13.03
2019-04-16T05:41:31.469Z,13.03
2019-04-16T05:44:02.232Z,13.10
2019-04-16T05:46:34.530Z,13.47
2019-04-16T05:49:05.682Z,13.70
2019-04-16T05:51:36.834Z,12.63
2019-04-16T05:54:13.274Z,13.50
2019-04-16T05:56:49.223Z,13.73
2019-04-16T05:59:19.972Z,13.77
2019-04-16T06:01:57.198Z,14.30
2019-04-16T06:04:28.696Z,14.07
2019-04-16T06:07:02.874Z,14.30
2019-04-16T06:09:33.025Z,15.40
2019-04-16T06:12:09.505Z,14.13
2019-04-16T06:14:53.844Z,13.53
2019-04-16T06:17:41.000Z,14.17
2019-04-16T06:20:22.964Z,13.43
2019-04-16T06:23:00.867Z,13.83
2019-04-16T06:25:41.012Z,13.83
2019-04-16T06:28:10.856Z,12.77
2019-04-16T06:30:44.258Z,14.07
2019-04-16T06:33:19.734Z,13.63
2019-04-16T06:35:59.153Z,14.33
2019-04-16T06:38:31.399Z,14.07
2019-04-16T06:41:06.568Z,14.10
2019-04-16T06:43:48.748Z,15.10
2019-04-16T06:46:21.131Z,13.80
2019-04-16T06:49:09.728Z,14.67
2019-04-16T06:51:45.020Z,14.60
2019-04-16T06:54:39.697Z,14.20
2019-04-16T06:57:14.361Z,13.50
2019-04-16T07:00:02.461Z,13.63
2019-04-16T07:03:03.131Z,13.47
2019-04-16T07:05:50.415Z,14.20
2019-04-16T07:08:37.403Z,13.17
2019-04-16T07:11:03.704Z,14.40
2019-04-16T07:13:45.654Z,14.87
2019-04-16T07:16:16.420Z,14.53
2019-04-16T07:18:54.363Z,14.10
2019-04-16T07:21:25.468Z,14.10
2019-04-16T07:23:58.228Z,13.87
2019-04-16T07:26:46.462Z,13.43
2019-04-16T07:29:31.577Z,14.10
2019-04-16T07:32:23.518Z,14.70
2019-04-16T07:34:56.290Z,14.17
2019-04-16T07:37:46.744Z,13.97
2019-04-16T07:40:35.687Z,13.80
2019-04-16T07:43:09.128Z,15.07
2019-04-16T07:45:44.167Z,13.43
2019-04-16T07:48:27.512Z,13.90
2019-04-16T07:51:05.633Z,13.47
2019-04-16T07:53:53.313Z,13.80
2019-04-16T07:56:27.146Z,13.83
2019-04-16T07:59:01.297Z,14.50
2019-04-16T08:01:31.305Z,13.80
2019-04-16T08:04:04.052Z,14.07
2019-04-16T08:06:38.970Z,14.63
2019-04-16T08:09:21.012Z,13.23
2019-04-16T08:11:52.853Z,13.80
2019-04-16T08:14:36.980Z,13.53
2019-04-16T08:17:09.694Z,13.60
2019-04-16T08:19:44.672Z,14.40
2019-04-16T08:22:16.722Z,13.80
2019-04-16T08:25:03.313Z,13.83
2019-04-16T08:27:38.135Z,13.60
2019-04-16T08:30:12.564Z,14.97
2019-04-16T08:32:45.850Z,13.70
2019-04-16T08:35:15.745Z,13.23
2019-04-16T08:37:49.178Z,13.23
2019-04-16T08:40:18.980Z,13.47
2019-04-16T08:42:49.597Z,13.27
2019-04-16T08:45:26.362Z,14.17
2019-04-16T08:47:59.110Z,14.10
2019-04-16T08:50:31.113Z,13.63
2019-04-16T08:53:04.635Z,13.70
2019-04-16T08:55:40.364Z,14.50
2019-04-16T08:58:12.967Z,14.30
2019-04-16T09:00:52.448Z,15.13
2019-04-16T09:03:23.418Z,14.10
2019-04-16T09:05:54.161Z,14.20
2019-04-16T09:08:36.706Z,13.40
2019-04-16T09:11:21.848Z,14.23
2019-04-16T09:13:48.043Z,13.60
2019-04-16T09:16:18.804Z,14.50
2019-04-16T09:18:54.237Z,14.30
2019-04-16T09:21:27.815Z,13.70
2019-04-16T09:24:15.515Z,14.40
2019-04-16T09:26:47.817Z,14.07
2019-04-16T09:29:52.851Z,13.57
2019-04-16T09:32:47.194Z,15.30
2019-04-16T09:35:37.400Z,13.70
2019-04-16T09:38:26.481Z,14.53
2019-04-16T09:41:13.711Z,15.97
2019-04-16T09:44:01.033Z,13.70
2019-04-16T09:46:50.325Z,15.27
2019-04-16T09:49:06.178Z,14.87
2019-04-16T09:51:37.281Z,14.57
2019-04-16T09:54:19.478Z,14.33
2019-04-16T09:56:59.751Z,15.67
2019-04-16T09:59:40.424Z,15.47
2019-04-16T10:02:20.124Z,14.67
2019-04-16T10:04:54.068Z,15.60
2019-04-16T10:07:26.057Z,16.00
2019-04-16T10:09:59.124Z,15.63
2019-04-16T10:12:36.207Z,15.80
2019-04-16T10:15:07.712Z,14.57
2019-04-16T10:17:38.312Z,14.97
2019-04-16T10:20:10.323Z,14.50
2019-04-16T10:22:41.071Z,14.97
2019-04-16T10:25:15.106Z,15.80
2019-04-16T10:27:47.536Z,15.97
2019-04-16T10:30:23.674Z,14.80
2019-04-16T10:32:55.325Z,14.73
2019-04-16T10:35:32.049Z,14.13
2019-04-16T10:38:04.638Z,15.60
2019-04-16T10:40:42.821Z,15.90
2019-04-16T10:43:24.409Z,15.10
2019-04-16T10:45:57.848Z,15.43
2019-04-16T10:48:50.796Z,16.37
2019-04-16T10:51:23.150Z,15.03
2019-04-16T10:53:58.554Z,15.57
2019-04-16T10:56:48.222Z,15.70
2019-04-16T10:59:50.991Z,15.40
2019-04-16T11:02:40.138Z,14.13
2019-04-16T11:05:19.271Z,15.80
2019-04-16T11:07:55.391Z,16.13
2019-04-16T11:10:27.603Z,15.30
2019-04-16T11:12:59.078Z,15.43
2019-04-16T11:15:30.681Z,14.53
2019-04-16T11:18:19.568Z,14.50
2019-04-16T11:20:50.315Z,15.87
2019-04-16T11:23:21.190Z,16.10
2019-04-16T11:25:52.189Z,15.80
2019-04-16T11:28:22.966Z,12.70
2019-04-16T11:31:04.899Z,13.90
2019-04-16T11:33:52.555Z,12.40
2019-04-16T11:36:30.994Z,12.37
2019-04-16T11:39:01.753Z,11.60
2019-04-16T11:41:33.978Z,12.30
2019-04-16T11:44:23.275Z,13.10
2019-04-16T11:46:53.896Z,11.47
2019-04-16T11:49:30.479Z,12.27
2019-04-16T11:52:11.116Z,13.03
2019-04-16T11:54:46.843Z,12.27
2019-04-16T11:57:15.616Z,12.17
2019-04-16T12:00:07.468Z,11.07
2019-04-16T12:02:40.872Z,11.60
2019-04-16T12:05:14.917Z,11.70
2019-04-16T12:07:50.370Z,10.63
2019-04-16T12:10:40.747Z,11.73
2019-04-16T12:13:31.925Z,11.33
2019-04-16T12:16:14.046Z,12.30
2019-04-16T12:19:03.582Z,9.70
2019-04-16T12:21:39.730Z,11.40
2019-04-16T12:24:29.929Z,10.97
2019-04-16T12:27:18.772Z,10.33
2019-04-16T12:30:09.441Z,10.13
2019-04-16T12:32:59.770Z,10.87
2019-04-16T12:35:37.830Z,10.80
2019-04-16T12:38:13.118Z,10.33
2019-04-16T12:40:44.328Z,10.17
2019-04-16T12:43:16.752Z,10.37
2019-04-16T12:46:14.782Z,10.30
2019-04-16T12:48:47.047Z,9.67
2019-04-16T12:51:31.024Z,9.17
2019-04-16T12:54:29.899Z,9.10
2019-04-16T12:57:21.692Z,9.80
2019-04-16T13:00:15.082Z,9.77
2019-04-16T13:02:58.944Z,9.93
2019-04-16T13:05:50.892Z,9.87
2019-04-16T13:08:30.258Z,8.70
2019-04-16T13:11:13.391Z,8.67
2019-04-16T13:13:49.964Z,8.50
2019-04-16T13:16:35.743Z,8.20
2019-04-16T13:19:08.660Z,8.63
2019-04-16T13:21:50.321Z,9.30
2019-04-16T13:24:22.860Z,9.17
2019-04-16T13:26:55.300Z,8.70
2019-04-16T13:29:29.465Z,7.67
2019-04-16T13:32:00.460Z,7.80
2019-04-16T13:34:33.333Z,7.17
2019-04-16T13:37:05.285Z,7.73
2019-04-16T13:39:50.026Z,8.40
2019-04-16T13:42:22.939Z,8.23
2019-04-16T13:45:15.146Z,6.80
2019-04-16T13:47:36.194Z,6.97
2019-04-16T13:50:11.361Z,7.30
2019-04-16T13:52:59.510Z,7.87
2019-04-16T13:55:38.242Z,7.80
2019-04-16T13:58:22.559Z,7.87
2019-04-16T14:00:55.054Z,7.43
2019-04-16T14:03:25.852Z,7.50
2019-04-16T14:05:56.772Z,8.20
2019-04-16T14:08:27.630Z,8.07
2019-04-16T14:10:59.115Z,8.37
2019-04-16T14:13:30.319Z,8.27
2019-04-16T14:16:11.713Z,8.90
2019-04-16T14:18:50.431Z,8.27
2019-04-16T14:21:22.313Z,8.53
2019-04-16T14:23:54.197Z,9.00
2019-04-16T14:26:24.964Z,9.50
2019-04-16T14:28:57.027Z,8.40
2019-04-16T14:31:27.760Z,9.33
2019-04-16T14:34:00.313Z,9.00
2019-04-16T14:36:32.311Z,9.20
2019-04-16T14:39:13.311Z,9.47
2019-04-16T14:41:49.931Z,10.20
2019-04-16T14:44:21.095Z,9.93
2019-04-16T14:46:52.284Z,9.83
2019-04-16T14:49:24.324Z,9.80
2019-04-16T14:51:58.008Z,9.60
2019-04-16T14:54:32.487Z,8.93
2019-04-16T14:57:10.170Z,10.37
2019-04-16T14:59:56.207Z,10.03
2019-04-16T15:02:41.668Z,9.40
2019-04-16T15:05:15.748Z,10.53
2019-04-16T15:07:48.096Z,11.00
2019-04-16T15:10:40.980Z,10.73
2019-04-16T15:13:25.688Z,11.43
2019-04-16T15:16:08.728Z,11.13
2019-04-16T15:18:36.144Z,12.33
2019-04-16T15:21:24.298Z,11.73
2019-04-16T15:24:07.106Z,11.83
2019-04-16T15:26:45.421Z,11.23
2019-04-16T15:29:20.816Z,12.27
2019-04-16T15:32:10.357Z,12.00
2019-04-16T15:34:43.998Z,12.77
2019-04-16T15:37:22.815Z,12.03
2019-04-16T15:39:59.285Z,11.93
2019-04-16T15:42:48.479Z,12.33
2019-04-16T15:45:25.501Z,12.37
2019-04-16T15:48:21.392Z,11.83
2019-04-16T15:50:59.851Z,11.27
2019-04-16T15:53:47.722Z,9.70
2019-04-16T15:56:23.862Z,10.07
2019-04-16T15:59:03.067Z,9.63
2019-04-16T16:01:51.929Z,8.67
2019-04-16T16:04:24.431Z,7.93
2019-04-16T16:06:58.928Z,7.90
2019-04-16T16:09:31.372Z,7.43
2019-04-16T16:12:09.879Z,8.40
2019-04-16T16:14:39.295Z,8.10
2019-04-16T16:17:13.575Z,8.60
2019-04-16T16:19:48.097Z,8.47
2019-04-16T16:22:20.320Z,8.90
2019-04-16T16:24:52.103Z,8.30
2019-04-16T16:27:25.043Z,9.00
2019-04-16T16:29:56.825Z,8.83
2019-04-16T16:32:27.588Z,9.20
2019-04-16T16:34:59.553Z,10.67
2019-04-16T16:37:30.355Z,9.00
2019-04-16T16:40:01.120Z,8.40
2019-04-16T16:42:34.257Z,8.47
2019-04-16T16:45:05.429Z,9.33
2019-04-16T16:47:39.846Z,7.97
2019-04-16T16:50:13.324Z,8.67
2019-04-16T16:52:53.513Z,9.53
2019-04-16T16:55:38.726Z,9.07
2019-04-16T16:58:25.460Z,7.50
2019-04-16T17:01:00.012Z,7.93
2019-04-16T17:03:44.105Z,7.77
2019-04-16T17:06:16.817Z,7.60
2019-04-16T17:08:50.433Z,7.60
2019-04-16T17:11:21.534Z,8.00
2019-04-16T17:13:58.014Z,6.97
2019-04-16T17:16:35.304Z,6.67
2019-04-16T17:19:07.027Z,6.73
2019-04-16T17:21:37.672Z,6.53
2019-04-16T17:24:09.378Z,7.40
2019-04-16T17:26:40.125Z,6.93
2019-04-16T17:29:10.818Z,6.30
2019-04-16T17:31:42.518Z,6.23
2019-04-16T17:34:19.472Z,5.97
2019-04-16T17:36:50.293Z,5.30
2019-04-16T17:39:42.277Z,5.63
2019-04-16T17:42:15.334Z,5.30
2019-04-16T17:45:00.190Z,5.33
2019-04-16T17:47:50.814Z,5.37
2019-04-16T17:50:30.341Z,4.63
2019-04-16T17:53:18.125Z,5.00
2019-04-16T17:55:57.596Z,4.50
2019-04-16T17:58:36.503Z,4.27
2019-04-16T18:01:25.379Z,4.27
2019-04-16T18:03:59.863Z,3.77
2019-04-16T18:06:35.628Z,3.93
2019-04-16T18:09:18.050Z,4.10
2019-04-16T18:12:12.030Z,3.43
2019-04-16T18:14:59.235Z,3.30
2019-04-16T18:17:47.723Z,3.27
2019-04-16T18:20:25.167Z,3.77
2019-04-16T18:23:03.454Z,3.53
2019-04-16T18:25:57.835Z,3.27
2019-04-16T18:28:39.022Z,3.40
2019-04-16T18:31:31.535Z,3.40
2019-04-16T18:34:24.734Z,3.87
2019-04-16T18:37:04.046Z,3.20
2019-04-16T18:39:41.760Z,3.40
2019-04-16T18:42:31.874Z,3.30
2019-04-16T18:45:08.332Z,3.10
2019-04-16T18:48:01.062Z,3.17
2019-04-16T18:50:27.911Z,3.10
2019-04-16T18:53:02.698Z,3.73
2019-04-16T18:55:36.820Z,3.30
2019-04-16T18:58:11.102Z,3.27
2019-04-16T19:00:48.767Z,2.77
2019-04-16T19:03:21.567Z,2.60
2019-04-16T19:05:55.026Z,2.70
2019-04-16T19:08:40.800Z,2.70
2019-04-16T19:11:03.043Z,2.63
2019-04-16T19:13:36.892Z,2.80
2019-04-16T19:16:08.618Z,2.70
2019-04-16T19:18:42.489Z,2.90
2019-04-16T19:21:19.254Z,3.23
2019-04-16T19:23:55.936Z,2.30
2019-04-16T19:26:31.600Z,2.03
2019-04-16T19:29:05.906Z,1.90
2019-04-16T19:31:39.555Z,2.00
2019-04-16T19:34:12.872Z,2.00
2019-04-16T19:36:46.668Z,2.10
2019-04-16T19:39:21.222Z,2.27
2019-04-16T19:41:57.252Z,2.10
2019-04-16T19:44:28.685Z,2.10
2019-04-16T19:47:02.190Z,2.20
2019-04-16T19:49:40.230Z,2.03
2019-04-16T19:52:14.312Z,2.03
2019-04-16T19:54:49.695Z,2.00
2019-04-16T19:57:24.192Z,2.27
2019-04-16T20:00:01.345Z,2.00
2019-04-16T20:02:36.776Z,2.30
2019-04-16T20:05:10.834Z,1.90
2019-04-16T20:07:44.915Z,1.67
2019-04-16T20:10:18.232Z,2.30
2019-04-16T20:12:52.014Z,2.27
2019-04-16T20:15:35.528Z,2.20
2019-04-16T20:18:07.334Z,2.20
2019-04-16T20:20:38.859Z,2.67
2019-04-16T20:23:10.136Z,2.50
2019-04-16T20:25:41.703Z,2.47
2019-04-16T20:28:15.661Z,2.50
2019-04-16T20:30:48.346Z,2.70
2019-04-16T20:33:19.591Z,2.40
2019-04-16T20:35:54.558Z,2.30
2019-04-16T20:38:29.375Z,2.70
2019-04-16T20:41:01.848Z,2.40
2019-04-16T20:43:36.688Z,2.40
2019-04-16T20:46:09.922Z,2.53
2019-04-16T20:48:45.041Z,2.47
2019-04-16T20:51:15.701Z,2.37
2019-04-16T20:53:46.688Z,2.33
2019-04-16T20:56:20.474Z,1.97
2019-04-16T20:58:53.221Z,2.33
2019-04-16T21:01:33.829Z,2.30
2019-04-16T21:04:04.676Z,2.30
2019-04-16T21:06:31.585Z,2.17
2019-04-16T21:09:06.351Z,2.70
2019-04-16T21:11:41.163Z,2.60
2019-04-16T21:14:13.283Z,2.80
2019-04-16T21:16:44.017Z,2.37
2019-04-16T21:19:22.813Z,2.73
2019-04-16T21:21:47.535Z,3.00
2019-04-16T21:24:18.435Z,2.50
2019-04-16T21:26:51.252Z,2.40
2019-04-16T21:29:26.230Z,2.53
2019-04-16T21:32:04.352Z,2.80
2019-04-16T21:34:42.582Z,3.80
2019-04-16T21:37:31.603Z,3.80
2019-04-16T21:40:05.360Z,3.37
2019-04-16T21:42:42.202Z,3.13
2019-04-16T21:45:13.721Z,2.70
2019-04-16T21:47:45.278Z,2.57
2019-04-16T21:50:17.081Z,2.77
2019-04-16T21:52:47.828Z,3.07
2019-04-16T21:55:18.548Z,2.67
2019-04-16T21:57:49.291Z,2.50
2019-04-16T22:00:38.112Z,2.60
2019-04-16T22:03:15.974Z,2.50
2019-04-16T22:05:48.346Z,2.80
2019-04-16T22:08:19.266Z,2.67
2019-04-16T22:10:51.859Z,3.10
2019-04-16T22:13:23.545Z,2.43
2019-04-16T22:15:57.261Z,2.40
2019-04-16T22:18:28.680Z,2.57
2019-04-16T22:20:59.686Z,2.30
2019-04-16T22:23:37.033Z,2.63
2019-04-16T22:26:10.566Z,2.67
2019-04-16T22:28:44.149Z,3.10
2019-04-16T22:31:13.754Z,3.20
2019-04-16T22:33:44.440Z,3.10
2019-04-16T22:36:16.310Z,3.70
2019-04-16T22:38:48.536Z,4.00
2019-04-16T22:41:23.537Z,3.23
2019-04-16T22:43:54.935Z,2.70
2019-04-16T22:46:27.239Z,2.57
2019-04-16T22:49:00.413Z,2.97
2019-04-16T22:51:31.145Z,2.90
2019-04-16T22:54:21.635Z,2.83
2019-04-16T22:56:53.984Z,2.77
2019-04-16T22:59:24.615Z,2.93
2019-04-16T23:01:55.585Z,2.60
2019-04-16T23:04:32.210Z,2.80
2019-04-16T23:07:07.064Z,2.90
2019-04-16T23:09:37.334Z,3.30
2019-04-16T23:12:12.734Z,2.80
2019-04-16T23:14:44.391Z,2.97
2019-04-16T23:17:16.010Z,2.47
2019-04-16T23:19:46.795Z,2.77
2019-04-16T23:22:17.454Z,2.90
2019-04-16T23:24:48.273Z,3.10
2019-04-16T23:27:19.433Z,3.13
2019-04-16T23:29:55.741Z,3.03
2019-04-16T23:32:28.592Z,2.80
2019-04-16T23:34:59.297Z,2.90
2019-04-16T23:37:30.116Z,3.00
2019-04-16T23:40:00.880Z,3.33
2019-04-16T23:42:33.624Z,2.70
2019-04-16T23:45:31.163Z,2.80
2019-04-16T23:48:20.710Z,2.97
2019-04-16T23:50:53.015Z,3.20
2019-04-16T23:53:41.567Z,3.40
2019-04-16T23:56:20.830Z,3.20
2019-04-16T23:59:01.231Z,3.43
